createdAt,value
2019-05-20T00:00:31.855Z,90.23
2019-05-20T00:01:37.036Z,90.60
2019-05-20T00:02:41.718Z,90.67
2019-05-20T00:03:46.549Z,90.74
2019-05-20T00:04:51.602Z,91.02
2019-05-20T00:05:56.440Z,90.73
2019-05-20T00:07:01.024Z,90.72
2019-05-20T00:08:05.881Z,90.67
2019-05-20T00:09:10.584Z,90.43
2019-05-20T00:10:15.508Z,90.26
2019-05-20T00:11:20.117Z,90.54
2019-05-20T00:12:25.039Z,90.73
2019-05-20T00:13:29.710Z,90.90
2019-05-20T00:14:34.561Z,90.81
2019-05-20T00:15:39.172Z,90.84
2019-05-20T00:16:43.960Z,90.89
2019-05-20T00:17:48.576Z,90.92
2019-05-20T00:18:53.383Z,91.25
2019-05-20T00:19:58.034Z,91.30
2019-05-20T00:21:03.170Z,91.29
2019-05-20T00:22:07.778Z,91.93
2019-05-20T00:23:12.667Z,91.94
2019-05-20T00:24:17.333Z,91.70
2019-05-20T00:25:22.191Z,91.79
2019-05-20T00:26:26.943Z,92.03
2019-05-20T00:27:31.794Z,91.90
2019-05-20T00:28:36.466Z,92.02
2019-05-20T00:29:41.317Z,91.97
2019-05-20T00:30:46.022Z,91.93
2019-05-20T00:31:51.184Z,92.21
2019-05-20T00:32:55.835Z,92.16
2019-05-20T00:34:00.718Z,92.17
2019-05-20T00:35:07.189Z,92.41
2019-05-20T00:36:12.352Z,92.60
2019-05-20T00:37:17.308Z,92.62
2019-05-20T00:38:22.117Z,92.59
2019-05-20T00:39:26.758Z,92.53
2019-05-20T00:40:31.565Z,92.29
2019-05-20T00:41:36.524Z,92.12
2019-05-20T00:42:41.318Z,92.09
2019-05-20T00:43:47.021Z,92.00
2019-05-20T00:44:51.810Z,91.91
2019-05-20T00:45:56.412Z,91.66
2019-05-20T00:47:01.212Z,91.56
2019-05-20T00:48:05.898Z,91.51
2019-05-20T00:49:10.861Z,91.36
2019-05-20T00:50:15.608Z,91.29
2019-05-20T00:51:20.395Z,91.50
2019-05-20T00:52:25.171Z,91.38
2019-05-20T00:53:30.320Z,91.47
2019-05-20T00:54:35.093Z,91.57
2019-05-20T00:55:41.019Z,91.69
2019-05-20T00:56:46.510Z,91.82
2019-05-20T00:57:51.307Z,91.93
2019-05-20T00:58:56.266Z,92.29
2019-05-20T01:00:01.063Z,92.46
2019-05-20T01:01:05.883Z,92.50
2019-05-20T01:02:10.741Z,92.39
2019-05-20T01:03:15.418Z,92.63
2019-05-20T01:04:20.302Z,92.77
2019-05-20T01:05:25.303Z,92.83
2019-05-20T01:06:30.130Z,92.69
2019-05-20T01:07:34.719Z,92.91
2019-05-20T01:08:39.495Z,92.97
2019-05-20T01:09:44.123Z,93.04
2019-05-20T01:10:48.977Z,93.33
2019-05-20T01:11:53.595Z,93.32
2019-05-20T01:12:58.675Z,93.28
2019-05-20T01:14:03.361Z,93.41
2019-05-20T01:15:08.486Z,93.48
2019-05-20T01:16:13.173Z,93.44
2019-05-20T01:17:17.957Z,93.40
2019-05-20T01:18:22.593Z,93.59
2019-05-20T01:19:27.401Z,93.64
2019-05-20T01:20:32.356Z,93.50
2019-05-20T01:21:37.153Z,93.61
2019-05-20T01:22:41.830Z,93.63
2019-05-20T01:23:46.647Z,93.92
2019-05-20T01:24:51.269Z,93.92
2019-05-20T01:25:56.198Z,93.85
2019-05-20T01:27:00.898Z,93.81
2019-05-20T01:28:05.758Z,93.93
2019-05-20T01:29:10.385Z,93.96
2019-05-20T01:30:16.018Z,94.71
2019-05-20T01:31:20.634Z,94.79
2019-05-20T01:32:25.424Z,94.50
2019-05-20T01:33:30.032Z,94.43
2019-05-20T01:34:34.853Z,94.36
2019-05-20T01:35:39.828Z,94.34
2019-05-20T01:36:45.069Z,94.32
2019-05-20T01:37:49.976Z,94.40
2019-05-20T01:38:55.219Z,94.24
2019-05-20T01:40:00.143Z,94.33
2019-05-20T01:41:05.364Z,94.33
2019-05-20T01:42:09.973Z,94.33
2019-05-20T01:43:14.765Z,94.49
2019-05-20T01:44:19.468Z,94.67
2019-05-20T01:45:24.380Z,94.53
2019-05-20T01:46:29.360Z,94.58
2019-05-20T01:47:34.153Z,94.55
2019-05-20T01:48:38.826Z,94.58
2019-05-20T01:49:43.638Z,94.59
2019-05-20T01:50:48.650Z,94.55
2019-05-20T01:51:53.765Z,94.65
2019-05-20T01:52:58.386Z,94.63
2019-05-20T01:54:03.254Z,94.65
2019-05-20T01:55:08.417Z,94.59
2019-05-20T01:56:13.277Z,94.56
2019-05-20T01:57:17.888Z,94.50
2019-05-20T01:58:22.746Z,94.46
2019-05-20T01:59:27.712Z,94.63
2019-05-20T02:00:32.533Z,94.43
2019-05-20T02:01:37.134Z,94.56
2019-05-20T02:02:42.014Z,94.70
2019-05-20T02:03:46.987Z,94.62
2019-05-20T02:04:51.818Z,94.61
2019-05-20T02:05:56.728Z,94.68
2019-05-20T02:07:01.962Z,94.69
2019-05-20T02:08:06.629Z,94.74
2019-05-20T02:09:11.642Z,94.85
2019-05-20T02:10:16.398Z,94.89
2019-05-20T02:11:21.193Z,94.94
2019-05-20T02:12:26.080Z,95.03
2019-05-20T02:13:49.104Z,94.94
2019-05-20T02:14:57.916Z,94.89
2019-05-20T02:16:03.975Z,95.09
2019-05-20T02:17:08.534Z,95.29
2019-05-20T02:18:13.498Z,95.28
2019-05-20T02:19:18.453Z,95.22
2019-05-20T02:20:23.444Z,95.45
2019-05-20T02:21:28.160Z,95.40
2019-05-20T02:22:33.496Z,95.35
2019-05-20T02:23:37.940Z,95.29
2019-05-20T02:24:43.006Z,95.32
2019-05-20T02:25:48.796Z,95.30
2019-05-20T02:26:54.109Z,95.32
2019-05-20T02:27:58.532Z,95.24
2019-05-20T02:29:03.513Z,95.45
2019-05-20T02:30:09.552Z,95.24
2019-05-20T02:31:14.766Z,95.40
2019-05-20T02:32:20.040Z,95.53
2019-05-20T02:33:25.013Z,95.56
2019-05-20T02:34:29.532Z,95.55
2019-05-20T02:35:34.509Z,95.64
2019-05-20T02:36:38.936Z,95.67
2019-05-20T02:37:43.897Z,95.76
2019-05-20T02:38:49.381Z,95.80
2019-05-20T02:39:54.357Z,95.80
2019-05-20T02:40:59.215Z,95.88
2019-05-20T02:42:04.326Z,95.74
2019-05-20T02:43:09.093Z,95.50
2019-05-20T02:44:14.141Z,95.40
2019-05-20T02:45:18.765Z,95.24
2019-05-20T02:46:23.805Z,95.31
2019-05-20T02:47:28.232Z,95.29
2019-05-20T02:48:33.205Z,95.38
2019-05-20T02:49:37.628Z,95.46
2019-05-20T02:50:42.635Z,95.49
2019-05-20T02:51:48.113Z,95.60
2019-05-20T02:52:53.156Z,96.08
2019-05-20T02:53:57.576Z,96.07
2019-05-20T02:55:02.550Z,96.09
2019-05-20T02:56:08.126Z,96.12
2019-05-20T02:57:13.115Z,96.01
2019-05-20T02:58:17.550Z,96.06
2019-05-20T02:59:22.529Z,96.31
2019-05-20T03:00:27.109Z,96.45
2019-05-20T03:01:32.213Z,96.48
2019-05-20T03:02:36.728Z,96.46
2019-05-20T03:03:41.677Z,96.50
2019-05-20T03:04:46.107Z,96.35
2019-05-20T03:05:51.192Z,96.45
2019-05-20T03:06:56.702Z,96.76
2019-05-20T03:08:01.683Z,96.81
2019-05-20T03:09:06.563Z,97.00
2019-05-20T03:10:11.876Z,96.85
2019-05-20T03:11:16.317Z,96.89
2019-05-20T03:12:21.380Z,96.84
2019-05-20T03:13:25.845Z,97.11
2019-05-20T03:14:30.899Z,97.07
2019-05-20T03:15:35.781Z,97.11
2019-05-20T03:16:40.815Z,97.14
2019-05-20T03:17:45.673Z,97.14
2019-05-20T03:18:50.627Z,97.25
2019-05-20T03:19:55.122Z,97.23
2019-05-20T03:21:00.107Z,97.21
2019-05-20T03:22:05.497Z,97.13
2019-05-20T03:23:10.558Z,97.22
2019-05-20T03:24:15.058Z,97.22
2019-05-20T03:25:20.101Z,97.14
2019-05-20T03:26:24.533Z,97.17
2019-05-20T03:27:29.576Z,97.04
2019-05-20T03:28:34.177Z,97.24
2019-05-20T03:29:39.486Z,97.22
2019-05-20T03:30:44.359Z,97.29
2019-05-20T03:31:49.346Z,97.31
2019-05-20T03:32:53.756Z,97.25
2019-05-20T03:33:59.138Z,97.27
2019-05-20T03:35:07.320Z,97.15
2019-05-20T03:36:12.811Z,96.92
2019-05-20T03:37:17.569Z,97.03
2019-05-20T03:38:22.616Z,96.96
2019-05-20T03:39:27.576Z,96.94
2019-05-20T03:40:32.564Z,96.94
2019-05-20T03:41:37.407Z,97.08
2019-05-20T03:42:43.475Z,96.92
2019-05-20T03:43:48.187Z,96.88
2019-05-20T03:44:53.622Z,96.80
2019-05-20T03:45:58.069Z,96.62
2019-05-20T03:47:03.207Z,96.53
2019-05-20T03:48:07.658Z,96.58
2019-05-20T03:49:12.696Z,96.56
2019-05-20T03:50:17.234Z,96.57
2019-05-20T03:51:22.316Z,96.43
2019-05-20T03:52:26.806Z,96.39
2019-05-20T03:53:31.776Z,96.26
2019-05-20T03:54:36.605Z,96.21
2019-05-20T03:55:41.597Z,96.17
2019-05-20T03:56:46.021Z,96.02
2019-05-20T03:57:51.355Z,96.03
2019-05-20T03:58:55.853Z,95.91
2019-05-20T04:00:00.893Z,95.98
2019-05-20T04:01:05.501Z,95.88
2019-05-20T04:02:10.618Z,95.87
2019-05-20T04:03:15.487Z,95.84
2019-05-20T04:04:20.460Z,95.82
2019-05-20T04:05:25.198Z,95.81
2019-05-20T04:06:30.197Z,95.60
2019-05-20T04:07:34.637Z,95.73
2019-05-20T04:08:39.843Z,95.62
2019-05-20T04:09:44.573Z,95.51
2019-05-20T04:10:49.639Z,95.52
2019-05-20T04:11:54.135Z,95.62
2019-05-20T04:12:59.668Z,95.44
2019-05-20T04:14:04.225Z,95.28
2019-05-20T04:15:10.218Z,95.17
2019-05-20T04:16:14.656Z,95.25
2019-05-20T04:17:19.638Z,94.77
2019-05-20T04:18:24.056Z,94.91
2019-05-20T04:19:29.122Z,94.88
2019-05-20T04:20:33.626Z,94.73
2019-05-20T04:21:38.610Z,94.94
2019-05-20T04:22:43.439Z,94.90
2019-05-20T04:23:48.651Z,94.87
2019-05-20T04:24:53.076Z,94.73
2019-05-20T04:25:58.507Z,94.93
2019-05-20T04:27:02.967Z,94.81
2019-05-20T04:28:08.012Z,94.77
2019-05-20T04:29:12.740Z,94.67
2019-05-20T04:30:19.182Z,94.52
2019-05-20T04:31:23.780Z,94.39
2019-05-20T04:32:28.853Z,94.67
2019-05-20T04:33:33.946Z,94.27
2019-05-20T04:34:38.976Z,93.88
2019-05-20T04:35:43.835Z,93.71
2019-05-20T04:36:48.829Z,93.43
2019-05-20T04:37:53.403Z,93.20
2019-05-20T04:38:58.446Z,93.27
2019-05-20T04:40:04.373Z,93.67
2019-05-20T04:41:09.801Z,93.77
2019-05-20T04:42:14.290Z,93.23
2019-05-20T04:43:20.588Z,93.04
2019-05-20T04:44:25.005Z,93.16
2019-05-20T04:45:31.519Z,93.05
2019-05-20T04:46:36.336Z,92.87
2019-05-20T04:47:41.406Z,92.87
2019-05-20T04:48:45.846Z,92.84
2019-05-20T04:49:50.888Z,92.27
2019-05-20T04:50:55.313Z,92.69
2019-05-20T04:52:00.302Z,92.44
2019-05-20T04:53:04.794Z,91.99
2019-05-20T04:54:09.772Z,91.89
2019-05-20T04:55:14.327Z,91.30
2019-05-20T04:56:19.300Z,91.03
2019-05-20T04:57:23.745Z,91.26
2019-05-20T04:58:29.172Z,91.46
2019-05-20T04:59:33.913Z,91.14
2019-05-20T05:00:51.188Z,91.05
2019-05-20T05:01:56.707Z,90.69
2019-05-20T05:03:01.673Z,90.28
2019-05-20T05:04:06.169Z,89.74
2019-05-20T05:05:11.777Z,89.12
2019-05-20T05:06:16.204Z,89.09
2019-05-20T05:07:21.373Z,89.05
2019-05-20T05:08:26.051Z,88.63
2019-05-20T05:09:31.377Z,88.37
2019-05-20T05:10:35.912Z,88.44
2019-05-20T05:11:41.039Z,89.34
2019-05-20T05:12:45.557Z,88.66
2019-05-20T05:13:50.971Z,88.47
2019-05-20T05:14:55.519Z,88.44
2019-05-20T05:16:00.645Z,87.81
2019-05-20T05:17:05.323Z,87.20
2019-05-20T05:18:10.749Z,87.04
2019-05-20T05:19:15.245Z,86.45
2019-05-20T05:20:20.288Z,85.91
2019-05-20T05:21:25.056Z,85.61
2019-05-20T05:22:30.116Z,86.00
2019-05-20T05:23:34.609Z,85.26
2019-05-20T05:24:39.725Z,84.75
2019-05-20T05:25:44.695Z,84.12
2019-05-20T05:26:49.743Z,84.28
2019-05-20T05:27:54.181Z,83.99
2019-05-20T05:28:59.578Z,84.57
2019-05-20T05:30:06.078Z,83.82
2019-05-20T05:31:11.353Z,83.50
2019-05-20T05:32:17.438Z,82.87
2019-05-20T05:33:22.451Z,82.21
2019-05-20T05:34:26.942Z,81.15
2019-05-20T05:35:32.058Z,81.48
2019-05-20T05:36:36.616Z,80.50
2019-05-20T05:37:41.838Z,80.62
2019-05-20T05:38:46.210Z,80.07
2019-05-20T05:39:51.267Z,79.92
2019-05-20T05:40:55.959Z,79.16
2019-05-20T05:42:00.940Z,77.97
2019-05-20T05:43:05.450Z,77.93
2019-05-20T05:44:10.421Z,77.99
2019-05-20T05:45:15.462Z,79.00
2019-05-20T05:46:20.468Z,79.62
2019-05-20T05:47:24.912Z,79.33
2019-05-20T05:48:30.216Z,78.97
2019-05-20T05:49:34.633Z,80.18
2019-05-20T05:50:39.683Z,79.21
2019-05-20T05:51:44.100Z,79.44
2019-05-20T05:52:49.099Z,79.70
2019-05-20T05:53:53.924Z,80.16
2019-05-20T05:54:58.934Z,80.80
2019-05-20T05:56:03.641Z,81.24
2019-05-20T05:57:08.685Z,81.19
2019-05-20T05:58:13.189Z,81.20
2019-05-20T05:59:18.166Z,79.50
2019-05-20T06:00:22.932Z,79.90
2019-05-20T06:01:27.973Z,80.91
2019-05-20T06:02:32.426Z,79.77
2019-05-20T06:03:38.408Z,80.13
2019-05-20T06:04:43.122Z,79.51
2019-05-20T06:05:49.073Z,79.57
2019-05-20T06:06:53.507Z,79.90
2019-05-20T06:07:58.508Z,79.48
2019-05-20T06:09:04.694Z,79.43
2019-05-20T06:10:10.113Z,80.06
2019-05-20T06:11:14.541Z,78.97
2019-05-20T06:12:19.674Z,78.93
2019-05-20T06:13:24.104Z,78.29
2019-05-20T06:14:29.077Z,79.58
2019-05-20T06:15:34.011Z,79.45
2019-05-20T06:16:38.995Z,78.92
2019-05-20T06:17:43.720Z,79.37
2019-05-20T06:18:48.717Z,79.39
2019-05-20T06:19:53.135Z,77.98
2019-05-20T06:20:58.112Z,78.00
2019-05-20T06:22:03.683Z,77.70
2019-05-20T06:23:08.792Z,76.55
2019-05-20T06:24:13.565Z,75.32
2019-05-20T06:25:19.084Z,75.79
2019-05-20T06:26:23.638Z,76.29
2019-05-20T06:27:29.741Z,75.11
2019-05-20T06:28:34.125Z,74.12
2019-05-20T06:29:39.193Z,73.66
2019-05-20T06:30:44.852Z,73.78
2019-05-20T06:31:49.946Z,73.94
2019-05-20T06:32:54.436Z,72.99
2019-05-20T06:33:59.414Z,73.21
2019-05-20T06:35:07.726Z,73.75
2019-05-20T06:36:25.930Z,73.06
2019-05-20T06:37:20.867Z,72.71
2019-05-20T06:38:35.798Z,72.33
2019-05-20T06:39:40.218Z,72.37
2019-05-20T06:40:45.275Z,71.31
2019-05-20T06:41:50.422Z,71.52
2019-05-20T06:42:58.147Z,71.59
2019-05-20T06:44:02.574Z,72.98
2019-05-20T06:45:08.200Z,72.87
2019-05-20T06:46:12.618Z,72.59
2019-05-20T06:47:18.020Z,72.69
2019-05-20T06:48:22.527Z,69.25
2019-05-20T06:49:27.517Z,68.66
2019-05-20T06:50:32.248Z,68.05
2019-05-20T06:51:37.295Z,68.71
2019-05-20T06:52:41.724Z,68.36
2019-05-20T06:53:46.727Z,68.22
2019-05-20T06:54:51.179Z,67.96
2019-05-20T06:55:56.217Z,68.15
2019-05-20T06:57:01.810Z,69.72
2019-05-20T06:58:06.841Z,68.37
2019-05-20T06:59:11.373Z,68.53
2019-05-20T07:00:22.110Z,69.04
2019-05-20T07:01:26.600Z,68.99
2019-05-20T07:02:32.974Z,70.13
2019-05-20T07:03:37.893Z,69.78
2019-05-20T07:04:42.881Z,68.67
2019-05-20T07:05:47.312Z,70.20
2019-05-20T07:06:52.660Z,69.23
2019-05-20T07:07:57.585Z,68.71
2019-05-20T07:09:02.913Z,69.51
2019-05-20T07:10:09.296Z,69.48
2019-05-20T07:11:14.270Z,68.19
2019-05-20T07:12:18.692Z,67.99
2019-05-20T07:13:23.744Z,68.30
2019-05-20T07:14:28.188Z,69.21
2019-05-20T07:15:33.238Z,67.80
2019-05-20T07:16:37.873Z,67.74
2019-05-20T07:17:42.915Z,67.08
2019-05-20T07:18:47.525Z,66.57
2019-05-20T07:19:52.673Z,65.12
2019-05-20T07:20:57.166Z,65.79
2019-05-20T07:22:02.623Z,66.50
2019-05-20T07:23:07.194Z,66.48
2019-05-20T07:24:12.572Z,67.26
2019-05-20T07:25:17.331Z,66.41
2019-05-20T07:26:22.480Z,66.02
2019-05-20T07:27:26.969Z,66.69
2019-05-20T07:28:31.954Z,65.05
2019-05-20T07:29:36.748Z,66.58
2019-05-20T07:30:41.790Z,66.81
2019-05-20T07:31:46.287Z,65.21
2019-05-20T07:32:51.339Z,66.35
2019-05-20T07:33:55.952Z,67.21
2019-05-20T07:35:00.979Z,66.85
2019-05-20T07:36:09.817Z,67.08
2019-05-20T07:37:13.255Z,64.96
2019-05-20T07:38:17.739Z,64.67
2019-05-20T07:39:22.741Z,65.17
2019-05-20T07:40:31.525Z,64.78
2019-05-20T07:41:36.513Z,64.43
2019-05-20T07:42:40.925Z,63.76
2019-05-20T07:43:46.040Z,63.19
2019-05-20T07:44:50.615Z,63.07
2019-05-20T07:45:55.928Z,61.02
2019-05-20T07:47:00.556Z,63.05
2019-05-20T07:48:06.361Z,63.98
2019-05-20T07:49:11.986Z,64.48
2019-05-20T07:50:17.744Z,64.07
2019-05-20T07:51:23.169Z,63.37
2019-05-20T07:52:29.322Z,62.27
2019-05-20T07:53:34.488Z,62.36
2019-05-20T07:54:39.919Z,62.79
2019-05-20T07:55:53.227Z,62.91
2019-05-20T07:57:01.468Z,61.23
2019-05-20T07:58:08.557Z,61.40
2019-05-20T07:59:15.978Z,61.09
2019-05-20T08:00:20.952Z,61.77
2019-05-20T08:01:26.145Z,61.87
2019-05-20T08:02:31.007Z,61.87
2019-05-20T08:03:38.582Z,61.17
2019-05-20T08:04:42.310Z,61.55
2019-05-20T08:05:47.287Z,60.76
2019-05-20T08:06:51.891Z,60.71
2019-05-20T08:07:57.004Z,60.65
2019-05-20T08:09:01.614Z,59.55
2019-05-20T08:10:08.806Z,59.40
2019-05-20T08:11:13.378Z,58.45
2019-05-20T08:12:18.547Z,59.83
2019-05-20T08:13:23.042Z,59.90
2019-05-20T08:14:28.357Z,60.82
2019-05-20T08:15:33.173Z,59.61
2019-05-20T08:16:38.225Z,60.34
2019-05-20T08:17:42.655Z,59.93
2019-05-20T08:18:47.883Z,60.61
2019-05-20T08:19:52.326Z,61.15
2019-05-20T08:20:57.456Z,61.89
2019-05-20T08:22:01.874Z,62.75
2019-05-20T08:23:06.969Z,58.79
2019-05-20T08:24:11.402Z,60.23
2019-05-20T08:25:16.936Z,59.96
2019-05-20T08:26:21.501Z,59.69
2019-05-20T08:27:26.610Z,60.24
2019-05-20T08:28:31.188Z,59.41
2019-05-20T08:29:36.543Z,59.05
2019-05-20T08:30:41.121Z,58.75
2019-05-20T08:31:46.092Z,57.58
2019-05-20T08:32:50.826Z,58.61
2019-05-20T08:33:56.106Z,59.00
2019-05-20T08:35:01.672Z,59.33
2019-05-20T08:36:06.845Z,57.54
2019-05-20T08:37:17.811Z,57.37
2019-05-20T08:38:23.907Z,56.87
2019-05-20T08:39:28.399Z,56.87
2019-05-20T08:40:33.404Z,56.49
2019-05-20T08:41:37.924Z,56.20
2019-05-20T08:42:42.897Z,57.04
2019-05-20T08:43:47.474Z,57.46
2019-05-20T08:44:52.501Z,55.39
2019-05-20T08:45:56.961Z,54.91
2019-05-20T08:47:02.061Z,55.89
2019-05-20T08:48:06.690Z,55.92
2019-05-20T08:49:11.976Z,56.80
2019-05-20T08:50:16.651Z,55.25
2019-05-20T08:51:21.683Z,54.11
2019-05-20T08:52:26.057Z,55.42
2019-05-20T08:53:31.080Z,55.78
2019-05-20T08:54:35.500Z,56.21
2019-05-20T08:55:40.578Z,54.98
2019-05-20T08:56:48.713Z,54.80
2019-05-20T08:57:51.950Z,55.80
2019-05-20T08:58:56.926Z,55.93
2019-05-20T09:00:02.559Z,56.92
2019-05-20T09:01:08.908Z,56.78
2019-05-20T09:02:14.268Z,55.92
2019-05-20T09:03:18.765Z,54.93
2019-05-20T09:04:23.744Z,54.96
2019-05-20T09:05:28.926Z,55.37
2019-05-20T09:06:34.093Z,55.00
2019-05-20T09:07:39.588Z,55.09
2019-05-20T09:08:44.579Z,54.42
2019-05-20T09:09:49.177Z,54.30
2019-05-20T09:10:54.177Z,55.18
2019-05-20T09:11:58.635Z,53.67
2019-05-20T09:13:03.666Z,54.87
2019-05-20T09:14:08.199Z,56.21
2019-05-20T09:15:13.910Z,55.66
2019-05-20T09:16:18.439Z,54.85
2019-05-20T09:17:23.473Z,56.04
2019-05-20T09:18:27.913Z,56.05
2019-05-20T09:19:34.228Z,56.41
2019-05-20T09:20:38.683Z,55.68
2019-05-20T09:21:43.761Z,55.10
2019-05-20T09:22:48.258Z,55.42
2019-05-20T09:23:53.368Z,52.91
2019-05-20T09:24:57.979Z,52.39
2019-05-20T09:26:03.213Z,52.46
2019-05-20T09:27:07.955Z,51.45
2019-05-20T09:28:13.011Z,52.42
2019-05-20T09:29:17.550Z,52.05
2019-05-20T09:30:23.187Z,52.18
2019-05-20T09:31:28.474Z,47.30
2019-05-20T09:32:33.585Z,47.02
2019-05-20T09:33:38.739Z,47.72
2019-05-20T09:34:44.023Z,47.66
2019-05-20T09:35:49.018Z,46.96
2019-05-20T09:36:54.254Z,46.60
2019-05-20T09:37:58.734Z,46.88
2019-05-20T09:39:05.358Z,48.91
2019-05-20T09:40:10.707Z,49.85
2019-05-20T09:41:15.900Z,50.11
2019-05-20T09:42:20.385Z,50.11
2019-05-20T09:43:25.421Z,50.50
2019-05-20T09:44:30.195Z,51.36
2019-05-20T09:45:35.713Z,50.11
2019-05-20T09:46:40.214Z,48.70
2019-05-20T09:47:45.266Z,50.46
2019-05-20T09:48:49.839Z,49.19
2019-05-20T09:49:54.821Z,49.33
2019-05-20T09:50:59.579Z,48.91
2019-05-20T09:52:04.641Z,48.68
2019-05-20T09:53:09.493Z,49.28
2019-05-20T09:54:14.535Z,49.84
2019-05-20T09:55:19.099Z,50.41
2019-05-20T09:56:24.153Z,48.03
2019-05-20T09:57:29.575Z,47.12
2019-05-20T09:58:34.535Z,48.54
2019-05-20T09:59:43.332Z,47.08
2019-05-20T10:00:47.026Z,45.95
2019-05-20T10:01:52.544Z,47.51
2019-05-20T10:02:57.644Z,47.17
2019-05-20T10:04:02.217Z,47.79
2019-05-20T10:05:07.512Z,48.27
2019-05-20T10:06:12.068Z,47.96
2019-05-20T10:07:17.068Z,47.83
2019-05-20T10:08:36.425Z,47.27
2019-05-20T10:09:28.852Z,46.78
2019-05-20T10:10:33.367Z,46.48
2019-05-20T10:11:39.623Z,46.86
2019-05-20T10:12:46.391Z,47.11
2019-05-20T10:13:50.722Z,47.41
2019-05-20T10:14:55.134Z,47.52
2019-05-20T10:16:00.187Z,44.69
2019-05-20T10:17:04.723Z,44.38
2019-05-20T10:18:10.158Z,45.52
2019-05-20T10:19:15.552Z,46.62
2019-05-20T10:20:20.762Z,46.97
2019-05-20T10:21:25.440Z,46.69
2019-05-20T10:22:30.500Z,47.60
2019-05-20T10:23:35.200Z,47.55
2019-05-20T10:24:40.240Z,46.71
2019-05-20T10:25:44.657Z,47.11
2019-05-20T10:26:49.655Z,45.20
2019-05-20T10:27:57.557Z,45.49
2019-05-20T10:29:00.897Z,47.51
2019-05-20T10:30:08.663Z,47.13
2019-05-20T10:31:13.635Z,48.33
2019-05-20T10:32:18.078Z,47.18
2019-05-20T10:33:23.372Z,46.39
2019-05-20T10:34:27.816Z,45.60
2019-05-20T10:35:32.825Z,43.33
2019-05-20T10:36:37.327Z,43.53
2019-05-20T10:37:42.381Z,42.27
2019-05-20T10:38:58.195Z,43.07
2019-05-20T10:39:53.805Z,44.44
2019-05-20T10:40:58.238Z,44.20
2019-05-20T10:42:03.297Z,43.05
2019-05-20T10:43:07.853Z,42.64
2019-05-20T10:44:12.906Z,44.19
2019-05-20T10:45:17.469Z,44.57
2019-05-20T10:46:22.722Z,44.08
2019-05-20T10:47:27.228Z,45.25
2019-05-20T10:48:32.194Z,44.75
2019-05-20T10:49:36.682Z,44.73
2019-05-20T10:50:41.761Z,44.42
2019-05-20T10:51:46.288Z,43.55
2019-05-20T10:52:51.677Z,43.65
2019-05-20T10:53:56.111Z,45.35
2019-05-20T10:55:01.408Z,44.25
2019-05-20T10:56:06.055Z,43.49
2019-05-20T10:57:11.277Z,44.16
2019-05-20T10:58:15.712Z,43.09
2019-05-20T10:59:20.710Z,44.01
2019-05-20T11:00:25.355Z,44.55
2019-05-20T11:01:30.645Z,45.77
2019-05-20T11:02:35.175Z,45.07
2019-05-20T11:03:40.232Z,45.20
2019-05-20T11:04:44.667Z,44.21
2019-05-20T11:05:49.800Z,45.12
2019-05-20T11:06:54.248Z,44.75
2019-05-20T11:07:59.296Z,43.86
2019-05-20T11:09:13.666Z,44.15
2019-05-20T11:10:11.926Z,43.03
2019-05-20T11:11:16.389Z,44.38
2019-05-20T11:12:21.446Z,44.18
2019-05-20T11:13:26.097Z,44.56
2019-05-20T11:14:31.173Z,43.55
2019-05-20T11:15:35.606Z,42.73
2019-05-20T11:16:40.743Z,43.48
2019-05-20T11:17:45.201Z,45.08
2019-05-20T11:18:50.202Z,45.09
2019-05-20T11:19:54.648Z,45.20
2019-05-20T11:20:59.708Z,45.27
2019-05-20T11:22:04.288Z,45.79
2019-05-20T11:23:09.699Z,45.67
2019-05-20T11:24:14.141Z,45.86
2019-05-20T11:25:19.348Z,46.42
2019-05-20T11:26:24.824Z,46.29
2019-05-20T11:27:29.844Z,47.75
2019-05-20T11:28:34.291Z,47.74
2019-05-20T11:29:39.289Z,48.41
2019-05-20T11:30:43.816Z,48.41
2019-05-20T11:31:48.821Z,48.34
2019-05-20T11:32:53.420Z,48.90
2019-05-20T11:33:58.416Z,49.31
2019-05-20T11:35:03.392Z,49.03
2019-05-20T11:36:08.763Z,47.45
2019-05-20T11:37:13.310Z,48.53
2019-05-20T11:38:18.356Z,48.55
2019-05-20T11:39:33.343Z,49.18
2019-05-20T11:40:29.633Z,48.89
2019-05-20T11:41:52.858Z,48.70
2019-05-20T11:42:44.384Z,49.81
2019-05-20T11:43:48.899Z,49.08
2019-05-20T11:44:53.904Z,48.87
2019-05-20T11:45:58.419Z,49.22
2019-05-20T11:47:03.450Z,48.82
2019-05-20T11:48:08.340Z,48.39
2019-05-20T11:49:13.416Z,49.13
2019-05-20T11:50:18.199Z,49.66
2019-05-20T11:51:23.195Z,49.42
2019-05-20T11:52:27.762Z,49.48
2019-05-20T11:53:32.868Z,50.24
2019-05-20T11:54:37.308Z,49.25
2019-05-20T11:55:42.310Z,49.66
2019-05-20T11:56:46.825Z,48.82
2019-05-20T11:57:51.839Z,48.71
2019-05-20T11:58:56.637Z,49.50
2019-05-20T12:00:01.987Z,49.65
2019-05-20T12:01:06.691Z,49.74
2019-05-20T12:02:11.750Z,49.32
2019-05-20T12:03:16.217Z,50.22
2019-05-20T12:04:21.277Z,49.34
2019-05-20T12:05:25.739Z,49.06
2019-05-20T12:06:30.973Z,47.83
2019-05-20T12:07:35.499Z,47.58
2019-05-20T12:08:41.491Z,48.96
2019-05-20T12:09:49.664Z,49.07
2019-05-20T12:10:53.340Z,48.51
2019-05-20T12:11:58.125Z,49.77
2019-05-20T12:13:03.162Z,49.97
2019-05-20T12:14:07.587Z,49.36
2019-05-20T12:15:14.025Z,49.32
2019-05-20T12:16:18.548Z,49.21
2019-05-20T12:17:23.540Z,48.60
2019-05-20T12:18:29.141Z,49.42
2019-05-20T12:19:34.137Z,49.88
2019-05-20T12:20:38.870Z,51.07
2019-05-20T12:21:43.883Z,49.75
2019-05-20T12:22:48.613Z,50.54
2019-05-20T12:23:53.636Z,50.34
2019-05-20T12:24:58.086Z,51.40
2019-05-20T12:26:03.151Z,50.23
2019-05-20T12:27:07.592Z,49.97
2019-05-20T12:28:12.978Z,50.30
2019-05-20T12:29:17.469Z,51.87
2019-05-20T12:30:23.491Z,51.73
2019-05-20T12:31:27.926Z,52.06
2019-05-20T12:32:33.205Z,51.15
2019-05-20T12:33:37.664Z,50.51
2019-05-20T12:34:44.012Z,49.27
2019-05-20T12:35:48.449Z,50.19
2019-05-20T12:36:53.509Z,50.29
2019-05-20T12:37:58.275Z,50.58
2019-05-20T12:39:03.851Z,49.59
2019-05-20T12:40:09.060Z,50.24
2019-05-20T12:41:14.212Z,50.68
2019-05-20T12:42:18.653Z,50.91
2019-05-20T12:43:24.008Z,51.77
2019-05-20T12:44:28.444Z,51.55
2019-05-20T12:45:33.579Z,52.00
2019-05-20T12:46:38.097Z,51.62
2019-05-20T12:47:43.175Z,51.42
2019-05-20T12:48:47.708Z,52.00
2019-05-20T12:49:52.718Z,52.38
2019-05-20T12:50:57.162Z,53.07
2019-05-20T12:52:02.212Z,52.69
2019-05-20T12:53:06.666Z,52.88
2019-05-20T12:54:11.684Z,53.00
2019-05-20T12:55:16.251Z,52.95
2019-05-20T12:56:21.610Z,53.44
2019-05-20T12:57:26.430Z,52.82
2019-05-20T12:58:31.425Z,52.16
2019-05-20T12:59:36.160Z,52.85
2019-05-20T13:00:41.166Z,52.11
2019-05-20T13:01:45.683Z,51.36
2019-05-20T13:02:50.740Z,50.95
2019-05-20T13:03:55.205Z,51.48
2019-05-20T13:05:00.186Z,50.53
2019-05-20T13:06:04.695Z,50.78
2019-05-20T13:07:09.745Z,51.72
2019-05-20T13:08:14.251Z,51.58
2019-05-20T13:09:19.262Z,52.19
2019-05-20T13:10:29.646Z,51.14
2019-05-20T13:11:30.533Z,50.40
2019-05-20T13:12:34.974Z,51.12
2019-05-20T13:13:39.943Z,50.92
2019-05-20T13:14:44.421Z,51.07
2019-05-20T13:15:49.685Z,50.91
2019-05-20T13:16:54.102Z,51.10
2019-05-20T13:17:59.431Z,50.46
2019-05-20T13:19:03.869Z,50.63
2019-05-20T13:20:10.853Z,50.65
2019-05-20T13:21:15.273Z,51.14
2019-05-20T13:22:20.589Z,49.73
2019-05-20T13:23:25.281Z,50.28
2019-05-20T13:24:30.282Z,50.80
2019-05-20T13:25:36.042Z,50.33
2019-05-20T13:26:41.364Z,51.04
2019-05-20T13:27:45.849Z,52.24
2019-05-20T13:28:50.820Z,52.68
2019-05-20T13:29:55.624Z,52.05
2019-05-20T13:31:00.594Z,52.38
2019-05-20T13:32:05.039Z,51.99
2019-05-20T13:33:10.038Z,52.94
2019-05-20T13:34:18.385Z,53.96
2019-05-20T13:35:22.687Z,52.73
2019-05-20T13:36:27.186Z,52.74
2019-05-20T13:37:32.564Z,53.05
2019-05-20T13:38:37.055Z,53.37
2019-05-20T13:39:42.053Z,53.92
2019-05-20T13:40:47.524Z,54.27
2019-05-20T13:41:52.613Z,54.24
2019-05-20T13:42:57.449Z,54.54
2019-05-20T13:44:02.447Z,54.89
2019-05-20T13:45:07.853Z,54.75
2019-05-20T13:46:12.877Z,55.12
2019-05-20T13:47:17.368Z,55.60
2019-05-20T13:48:22.475Z,55.85
2019-05-20T13:49:26.906Z,56.33
2019-05-20T13:50:31.881Z,56.59
2019-05-20T13:51:38.641Z,56.64
2019-05-20T13:52:43.030Z,56.93
2019-05-20T13:53:47.453Z,57.38
2019-05-20T13:54:53.417Z,57.50
2019-05-20T13:55:57.900Z,57.17
2019-05-20T13:57:02.877Z,57.76
2019-05-20T13:58:07.361Z,57.97